createdAt,value
2022-09-28T00:01:50.242Z,99779.03
2022-09-28T00:04:55.647Z,99769.47
2022-09-28T00:08:02.067Z,99775.97
2022-09-28T00:11:12.846Z,99773.81
2022-09-28T00:14:18.268Z,99778.63
2022-09-28T00:17:24.263Z,99781.47
2022-09-28T00:20:30.188Z,99785.69
2022-09-28T00:23:58.584Z,99785.97
2022-09-28T00:27:04.617Z,99779.59
2022-09-28T00:30:10.694Z,99775.91
2022-09-28T00:33:16.218Z,99775.41
2022-09-28T00:36:21.987Z,99784.47
2022-09-28T00:39:28.769Z,99775.31
2022-09-28T00:42:34.608Z,99774.31
2022-09-28T00:45:40.350Z,99776.31
2022-09-28T00:49:03.559Z,99780.72
2022-09-28T00:52:16.156Z,99778.88
2022-09-28T00:55:29.603Z,99783.31
2022-09-28T00:58:55.027Z,99777.44
2022-09-28T01:02:03.220Z,99764.53
2022-09-28T01:05:11.049Z,99773.13
2022-09-28T01:08:18.156Z,99766.34
2022-09-28T01:11:25.697Z,99760.81
2022-09-28T01:14:31.935Z,99757.44
2022-09-28T01:18:03.649Z,99752.88
2022-09-28T01:21:24.396Z,99751.38
2022-09-28T01:24:40.716Z,99750.94
2022-09-28T01:27:57.983Z,99745.50
2022-09-28T01:31:15.794Z,99742.56
2022-09-28T01:34:30.336Z,99744.09
2022-09-28T01:37:47.860Z,99754.19
2022-09-28T01:40:55.685Z,99755.22
2022-09-28T01:44:04.689Z,99760.56
2022-09-28T01:47:14.397Z,99773.91
2022-09-28T01:50:25.393Z,99763.00
2022-09-28T01:53:43.700Z,99766.94
2022-09-28T01:57:07.769Z,99754.81
2022-09-28T02:00:15.686Z,99762.19
2022-09-28T02:03:32.971Z,99754.09
2022-09-28T02:06:53.450Z,99745.34
2022-09-28T02:10:06.233Z,99743.84
2022-09-28T02:13:19.063Z,99744.66
2022-09-28T02:16:31.562Z,99750.41
2022-09-28T02:19:39.739Z,99753.22
2022-09-28T02:22:57.084Z,99757.81
2022-09-28T02:26:08.529Z,99751.13
2022-09-28T02:29:15.506Z,99756.28
2022-09-28T02:32:22.915Z,99752.75
2022-09-28T02:35:28.827Z,99751.69
2022-09-28T02:38:38.618Z,99750.97
2022-09-28T02:42:03.968Z,99759.88
2022-09-28T02:45:21.702Z,99761.84
2022-09-28T02:48:55.718Z,99755.06
2022-09-28T02:52:39.729Z,99749.38
2022-09-28T02:56:11.183Z,99742.38
2022-09-28T02:59:19.597Z,99742.81
2022-09-28T03:02:31.725Z,99747.16
2022-09-28T03:06:02.284Z,99744.09
2022-09-28T03:09:34.602Z,99741.78
2022-09-28T03:12:41.962Z,99738.19
2022-09-28T03:15:53.304Z,99747.72
2022-09-28T03:18:59.646Z,99735.69
2022-09-28T03:22:06.008Z,99725.09
2022-09-28T03:25:12.156Z,99728.03
2022-09-28T03:28:18.650Z,99725.34
2022-09-28T03:31:24.192Z,99729.19
2022-09-28T03:34:30.499Z,99736.72
2022-09-28T03:37:36.962Z,99733.53
2022-09-28T03:40:43.846Z,99733.06
2022-09-28T03:43:49.871Z,99733.88
2022-09-28T03:46:56.812Z,99726.50
2022-09-28T03:50:02.724Z,99729.75
2022-09-28T03:53:08.474Z,99732.91
2022-09-28T03:56:16.325Z,99736.34
2022-09-28T03:59:22.192Z,99739.00
2022-09-28T04:02:28.029Z,99742.69
2022-09-28T04:05:35.500Z,99738.72
2022-09-28T04:08:41.661Z,99736.81
2022-09-28T04:12:03.395Z,99732.31
2022-09-28T04:15:11.747Z,99742.09
2022-09-28T04:18:16.960Z,99741.22
2022-09-28T04:21:42.712Z,99741.78
2022-09-28T04:24:51.980Z,99740.75
2022-09-28T04:28:16.107Z,99747.47
2022-09-28T04:31:23.601Z,99734.19
2022-09-28T04:34:33.123Z,99732.16
2022-09-28T04:37:40.744Z,99730.00
2022-09-28T04:40:50.136Z,99732.03
2022-09-28T04:43:55.920Z,99725.06
2022-09-28T04:47:05.280Z,99720.97
2022-09-28T04:50:11.300Z,99716.78
2022-09-28T04:53:37.374Z,99720.72
2022-09-28T04:56:43.667Z,99715.50
2022-09-28T04:59:49.372Z,99724.59
2022-09-28T05:02:56.684Z,99729.91
2022-09-28T05:06:21.895Z,99726.09
2022-09-28T05:09:37.691Z,99737.44
2022-09-28T05:12:44.099Z,99732.03
2022-09-28T05:15:57.479Z,99734.94
2022-09-28T05:19:11.060Z,99723.06
2022-09-28T05:22:16.750Z,99728.91
2022-09-28T05:25:25.300Z,99731.81
2022-09-28T05:28:45.067Z,99736.06
2022-09-28T05:32:13.333Z,99736.09
2022-09-28T05:35:21.609Z,99734.56
2022-09-28T05:38:29.172Z,99734.66
2022-09-28T05:41:34.750Z,99736.22
2022-09-28T05:44:40.805Z,99738.63
2022-09-28T05:47:46.981Z,99737.84
2022-09-28T05:50:58.905Z,99738.41
2022-09-28T05:54:06.369Z,99734.84
2022-09-28T05:57:15.492Z,99741.44
2022-09-28T06:00:21.087Z,99734.34
2022-09-28T06:03:32.115Z,99733.22
2022-09-28T06:06:39.211Z,99729.44
2022-09-28T06:09:44.793Z,99732.06
2022-09-28T06:12:57.135Z,99727.63
2022-09-28T06:16:05.194Z,99724.91
2022-09-28T06:19:12.815Z,99721.72
2022-09-28T06:22:37.174Z,99731.88
2022-09-28T06:25:46.207Z,99724.56
2022-09-28T06:28:51.732Z,99724.84
2022-09-28T06:31:57.352Z,99727.59
2022-09-28T06:35:04.004Z,99727.28
2022-09-28T06:38:09.560Z,99726.31
2022-09-28T06:41:16.501Z,99731.09
2022-09-28T06:44:23.341Z,99723.59
2022-09-28T06:47:28.841Z,99723.78
2022-09-28T06:50:47.997Z,99717.84
2022-09-28T06:54:18.508Z,99717.91
2022-09-28T06:58:05.152Z,99716.03
2022-09-28T07:01:12.575Z,99719.69
2022-09-28T07:04:43.214Z,99708.63
2022-09-28T07:08:29.020Z,99706.41
2022-09-28T07:11:53.913Z,99698.53
2022-09-28T07:15:05.379Z,99706.88
2022-09-28T07:18:13.085Z,99708.47
2022-09-28T07:21:29.067Z,99711.00
2022-09-28T07:24:38.708Z,99719.16
2022-09-28T07:28:07.570Z,99718.47
2022-09-28T07:31:33.994Z,99713.72
2022-09-28T07:34:59.092Z,99716.22
2022-09-28T07:38:24.063Z,99724.03
2022-09-28T07:41:32.840Z,99724.19
2022-09-28T07:44:41.549Z,99723.97
2022-09-28T07:47:47.963Z,99734.03
2022-09-28T07:51:12.673Z,99731.41
2022-09-28T07:54:20.868Z,99735.66
2022-09-28T07:57:47.290Z,99743.75
2022-09-28T08:01:05.924Z,99737.31
2022-09-28T08:04:12.930Z,99738.09
2022-09-28T08:07:24.111Z,99742.75
2022-09-28T08:10:38.663Z,99739.13
2022-09-28T08:14:04.163Z,99728.53
2022-09-28T08:17:28.480Z,99736.81
2022-09-28T08:20:55.840Z,99727.94
2022-09-28T08:24:01.864Z,99727.84
2022-09-28T08:27:07.474Z,99723.97
2022-09-28T08:30:13.920Z,99715.69
2022-09-28T08:33:45.285Z,99728.13
2022-09-28T08:37:26.579Z,99724.47
2022-09-28T08:40:58.967Z,99726.66
2022-09-28T08:44:26.147Z,99734.34
2022-09-28T08:48:15.431Z,99746.19
2022-09-28T08:51:57.905Z,99750.66
2022-09-28T08:55:39.622Z,99756.63
2022-09-28T08:58:54.826Z,99757.00
2022-09-28T09:02:06.309Z,99759.00
2022-09-28T09:05:17.559Z,99759.91
2022-09-28T09:09:01.355Z,99757.41
2022-09-28T09:12:13.865Z,99756.31
2022-09-28T09:15:39.305Z,99750.91
2022-09-28T09:19:11.369Z,99745.81
2022-09-28T09:22:37.797Z,99750.25
2022-09-28T09:25:50.634Z,99751.47
2022-09-28T09:29:03.537Z,99745.84
2022-09-28T09:32:56.642Z,99746.00
2022-09-28T09:36:34.810Z,99736.72
2022-09-28T09:40:21.080Z,99734.56
2022-09-28T09:44:12.169Z,99726.66
2022-09-28T09:47:38.980Z,99723.53
2022-09-28T09:51:00.931Z,99718.88
2022-09-28T09:54:32.485Z,99712.19
2022-09-28T09:58:03.483Z,99718.25
2022-09-28T10:01:20.123Z,99706.66
2022-09-28T10:04:49.544Z,99709.09
2022-09-28T10:08:03.199Z,99706.63
2022-09-28T10:11:14.201Z,99697.00
2022-09-28T10:14:25.750Z,99696.84
2022-09-28T10:17:39.643Z,99689.56
2022-09-28T10:21:16.355Z,99693.53
2022-09-28T10:24:51.959Z,99687.81
2022-09-28T10:27:59.259Z,99691.63
2022-09-28T10:31:42.375Z,99694.50
2022-09-28T10:35:22.512Z,99686.69
2022-09-28T10:38:37.085Z,99677.47
2022-09-28T10:41:52.338Z,99678.56
2022-09-28T10:45:16.225Z,99679.22
2022-09-28T10:48:23.228Z,99671.75
2022-09-28T10:51:45.689Z,99673.16
2022-09-28T10:55:00.879Z,99676.81
2022-09-28T10:58:26.092Z,99673.97
2022-09-28T11:01:34.913Z,99677.00
2022-09-28T11:04:50.497Z,99668.72
2022-09-28T11:08:00.202Z,99667.28
2022-09-28T11:11:20.400Z,99659.34
2022-09-28T11:14:42.777Z,99656.78
2022-09-28T11:18:21.001Z,99660.13
2022-09-28T11:21:40.336Z,99651.06
2022-09-28T11:24:46.144Z,99654.88
2022-09-28T11:27:51.195Z,99643.13
2022-09-28T11:30:57.758Z,99645.19
2022-09-28T11:34:31.055Z,99643.59
2022-09-28T11:38:22.846Z,99639.22
2022-09-28T11:42:03.967Z,99630.00
2022-09-28T11:45:32.729Z,99626.84
2022-09-28T11:48:58.166Z,99628.91
2022-09-28T11:52:12.692Z,99622.34
2022-09-28T11:55:57.603Z,99622.22
2022-09-28T11:59:12.273Z,99623.81
2022-09-28T12:02:34.137Z,99618.31
2022-09-28T12:05:52.010Z,99618.00
2022-09-28T12:09:07.201Z,99605.78
2022-09-28T12:12:33.720Z,99611.63
2022-09-28T12:16:27.302Z,99605.59
2022-09-28T12:19:34.577Z,99600.41
2022-09-28T12:22:46.324Z,99594.97
2022-09-28T12:26:05.325Z,99600.09
2022-09-28T12:29:42.494Z,99594.50
2022-09-28T12:33:04.760Z,99587.09
2022-09-28T12:36:17.864Z,99591.41
2022-09-28T12:39:56.401Z,99588.81
2022-09-28T12:43:29.225Z,99584.63
2022-09-28T12:47:10.196Z,99576.19
2022-09-28T12:50:39.595Z,99577.66
2022-09-28T12:53:55.098Z,99567.75
2022-09-28T12:57:31.599Z,99574.84
2022-09-28T13:01:11.059Z,99566.41
2022-09-28T13:04:40.310Z,99562.03
2022-09-28T13:07:57.913Z,99555.34
2022-09-28T13:11:22.901Z,99561.44
2022-09-28T13:14:38.314Z,99565.50
2022-09-28T13:17:52.577Z,99552.03
2022-09-28T13:21:08.845Z,99545.94
2022-09-28T13:24:32.630Z,99550.50
2022-09-28T13:27:46.397Z,99554.41
2022-09-28T13:30:54.381Z,99553.41
2022-09-28T13:34:03.573Z,99544.56
2022-09-28T13:37:17.099Z,99549.06
2022-09-28T13:41:00.769Z,99539.28
2022-09-28T13:44:20.461Z,99535.75
2022-09-28T13:47:55.675Z,99539.41
2022-09-28T13:51:25.210Z,99532.53
2022-09-28T13:55:03.233Z,99531.63
2022-09-28T13:58:24.861Z,99516.22
2022-09-28T14:01:40.635Z,99516.75
2022-09-28T14:05:01.265Z,99516.03
2022-09-28T14:08:09.388Z,99524.16
2022-09-28T14:11:35.098Z,99517.13
2022-09-28T14:14:52.377Z,99518.75
2022-09-28T14:18:16.640Z,99521.53
2022-09-28T14:21:21.837Z,99517.41
2022-09-28T14:24:51.251Z,99516.88
2022-09-28T14:28:01.352Z,99513.69
2022-09-28T14:31:24.829Z,99504.88
2022-09-28T14:34:39.111Z,99511.88
2022-09-28T14:38:07.746Z,99517.56
2022-09-28T14:41:31.814Z,99514.16
2022-09-28T14:45:07.106Z,99515.25
2022-09-28T14:48:19.552Z,99521.69
2022-09-28T14:51:24.977Z,99518.25
2022-09-28T14:54:56.811Z,99515.91
2022-09-28T14:58:04.986Z,99514.16
2022-09-28T15:01:20.736Z,99506.34
2022-09-28T15:04:29.756Z,99498.50
2022-09-28T15:07:49.785Z,99490.97
2022-09-28T15:10:58.765Z,99495.31
2022-09-28T15:14:08.669Z,99510.63
2022-09-28T15:17:22.338Z,99506.94
2022-09-28T15:20:32.676Z,99511.25
2022-09-28T15:23:40.941Z,99507.47
2022-09-28T15:26:48.546Z,99505.66
2022-09-28T15:30:23.415Z,99501.22
2022-09-28T15:33:50.502Z,99494.09
2022-09-28T15:36:56.873Z,99499.50
2022-09-28T15:40:03.404Z,99494.97
2022-09-28T15:43:27.674Z,99499.28
2022-09-28T15:46:42.129Z,99489.63
2022-09-28T15:49:59.959Z,99498.78
2022-09-28T15:53:06.191Z,99487.09
2022-09-28T15:56:13.300Z,99493.50
2022-09-28T15:59:31.193Z,99500.38
2022-09-28T16:02:36.658Z,99502.13
2022-09-28T16:05:47.230Z,99505.34
2022-09-28T16:08:53.017Z,99507.25
2022-09-28T16:11:59.622Z,99502.31
2022-09-28T16:15:28.340Z,99510.16
2022-09-28T16:18:40.932Z,99501.41
2022-09-28T16:21:48.703Z,99498.72
2022-09-28T16:24:57.672Z,99481.22
2022-09-28T16:28:05.182Z,99492.25
2022-09-28T16:31:13.869Z,99495.75
2022-09-28T16:34:24.339Z,99494.06
2022-09-28T16:37:32.496Z,99494.34
2022-09-28T16:40:49.778Z,99490.72
2022-09-28T16:43:59.987Z,99496.91
2022-09-28T16:47:06.874Z,99495.50
2022-09-28T16:50:15.586Z,99500.25
2022-09-28T16:53:39.844Z,99500.59
2022-09-28T16:56:45.099Z,99499.47
2022-09-28T16:59:50.500Z,99492.63
2022-09-28T17:02:56.431Z,99490.72
2022-09-28T17:06:08.811Z,99486.72
2022-09-28T17:09:14.105Z,99490.69
2022-09-28T17:12:25.065Z,99487.66
2022-09-28T17:15:30.405Z,99486.22
2022-09-28T17:18:39.529Z,99477.19
2022-09-28T17:21:45.777Z,99482.22
2022-09-28T17:24:51.121Z,99474.13
2022-09-28T17:27:58.847Z,99466.03
2022-09-28T17:31:04.792Z,99473.97
2022-09-28T17:34:13.053Z,99475.72
2022-09-28T17:37:18.835Z,99482.19
2022-09-28T17:40:28.635Z,99482.19
2022-09-28T17:43:35.229Z,99487.94
2022-09-28T17:46:49.146Z,99492.81
2022-09-28T17:49:54.928Z,99492.94
2022-09-28T17:53:06.592Z,99493.28
2022-09-28T17:56:14.436Z,99483.72
2022-09-28T17:59:21.038Z,99480.09
2022-09-28T18:02:26.648Z,99480.38
2022-09-28T18:05:34.950Z,99475.44
2022-09-28T18:08:46.052Z,99488.63
2022-09-28T18:12:04.308Z,99483.47
2022-09-28T18:15:16.103Z,99483.28
2022-09-28T18:18:30.280Z,99479.47
2022-09-28T18:21:41.484Z,99495.72
2022-09-28T18:24:52.605Z,99494.06
2022-09-28T18:28:08.134Z,99509.47
2022-09-28T18:31:23.596Z,99501.19
2022-09-28T18:35:22.937Z,99497.19
2022-09-28T18:43:20.864Z,99494.03
2022-09-28T18:46:53.273Z,99488.09
2022-09-28T18:50:17.899Z,99488.50
2022-09-28T18:53:36.554Z,99482.03
2022-09-28T18:56:50.056Z,99468.22
2022-09-28T19:10:13.026Z,99469.28
2022-09-28T19:13:59.886Z,99472.66
2022-09-28T19:17:28.969Z,99475.44
2022-09-28T19:35:52.392Z,99473.31
2022-09-28T19:39:40.549Z,99479.47
2022-09-28T19:43:33.767Z,99483.06
2022-09-28T19:47:27.743Z,99488.47
2022-09-28T19:51:43.744Z,99478.72
2022-09-28T19:55:16.544Z,99471.31
2022-09-28T19:58:54.518Z,99472.69
2022-09-28T20:02:37.596Z,99469.94
2022-09-28T20:06:00.315Z,99464.16
2022-09-28T20:09:18.220Z,99460.66
2022-09-28T20:12:34.821Z,99458.31
2022-09-28T20:15:48.963Z,99464.63
2022-09-28T20:19:08.782Z,99461.63
2022-09-28T20:22:22.017Z,99452.59
2022-09-28T20:25:38.691Z,99440.50
2022-09-28T20:28:50.350Z,99445.19
2022-09-28T20:32:04.422Z,99440.03
2022-09-28T20:35:13.045Z,99439.22
2022-09-28T20:38:22.082Z,99435.00
2022-09-28T20:41:38.088Z,99434.66
2022-09-28T20:44:47.402Z,99428.25
2022-09-28T20:47:53.265Z,99427.44
2022-09-28T20:51:01.114Z,99426.94
2022-09-28T20:54:07.028Z,99426.19
2022-09-28T20:57:18.788Z,99435.34
2022-09-28T21:00:24.088Z,99438.94
2022-09-28T21:03:30.185Z,99430.75
2022-09-28T21:06:38.431Z,99427.66
2022-09-28T21:09:43.999Z,99431.00
2022-09-28T21:12:53.383Z,99427.63
2022-09-28T21:16:02.484Z,99436.88
2022-09-28T21:19:08.633Z,99439.97
2022-09-28T21:22:13.950Z,99443.88
2022-09-28T21:25:19.431Z,99452.03
2022-09-28T21:28:25.023Z,99445.19
2022-09-28T21:31:43.252Z,99451.66
2022-09-28T21:34:48.468Z,99445.50
2022-09-28T21:37:54.493Z,99443.00
2022-09-28T21:41:00.775Z,99446.09
2022-09-28T21:44:06.819Z,99434.34
2022-09-28T21:47:12.222Z,99431.16
2022-09-28T21:50:18.141Z,99430.56
2022-09-28T21:53:25.785Z,99420.13
2022-09-28T21:56:31.221Z,99417.72
2022-09-28T21:59:37.348Z,99417.91
2022-09-28T22:02:44.363Z,99419.91
2022-09-28T22:05:52.777Z,99427.31
2022-09-28T22:08:58.580Z,99428.47
2022-09-28T22:12:04.450Z,99424.19
2022-09-28T22:15:10.667Z,99426.78
2022-09-28T22:18:16.583Z,99435.53
2022-09-28T22:21:32.084Z,99437.03
2022-09-28T22:24:38.087Z,99444.38
2022-09-28T22:27:46.286Z,99444.13
2022-09-28T22:30:51.947Z,99446.38
2022-09-28T22:33:58.688Z,99449.22
2022-09-28T22:37:04.930Z,99446.53
2022-09-28T22:40:13.000Z,99446.78
2022-09-28T22:43:19.507Z,99444.66
2022-09-28T22:46:28.050Z,99429.16
2022-09-28T22:49:33.708Z,99429.41
2022-09-28T22:52:39.268Z,99429.91
2022-09-28T22:55:45.630Z,99426.91
2022-09-28T22:58:51.185Z,99423.97
2022-09-28T23:01:57.079Z,99424.09
2022-09-28T23:05:02.527Z,99429.59
2022-09-28T23:08:08.107Z,99436.13
2022-09-28T23:11:14.559Z,99433.56
2022-09-28T23:14:20.178Z,99443.50
2022-09-28T23:17:25.934Z,99434.16
2022-09-28T23:20:31.728Z,99442.31
2022-09-28T23:23:37.520Z,99440.94
2022-09-28T23:26:43.187Z,99444.91
2022-09-28T23:29:49.540Z,99431.34
2022-09-28T23:32:55.056Z,99422.31
2022-09-28T23:36:01.818Z,99424.84
2022-09-28T23:39:07.305Z,99429.72
2022-09-28T23:42:13.032Z,99431.69
2022-09-28T23:45:18.593Z,99429.22
2022-09-28T23:48:24.451Z,99428.31
2022-09-28T23:51:30.112Z,99427.63
2022-09-28T23:54:35.694Z,99444.16
2022-09-28T23:57:44.074Z,99434.47
